createdAt,value
2019-06-11T00:00:45.158Z,4.00
2019-06-11T00:01:45.155Z,4.00
2019-06-11T00:02:45.129Z,4.00
2019-06-11T00:03:45.128Z,4.00
2019-06-11T00:04:45.142Z,4.00
2019-06-11T00:05:45.102Z,4.00
2019-06-11T00:06:45.103Z,4.00
2019-06-11T00:07:45.067Z,4.00
2019-06-11T00:08:45.077Z,4.00
2019-06-11T00:09:45.048Z,4.00
2019-06-11T00:10:45.054Z,4.00
2019-06-11T00:11:45.041Z,4.00
2019-06-11T00:12:45.012Z,4.00
2019-06-11T00:13:45.025Z,4.00
2019-06-11T00:14:45.005Z,4.00
2019-06-11T00:15:44.989Z,4.00
2019-06-11T00:16:44.979Z,4.00
2019-06-11T00:17:44.988Z,4.00
2019-06-11T00:18:44.959Z,4.00
2019-06-11T00:19:44.948Z,4.00
2019-06-11T00:20:44.985Z,4.00
2019-06-11T00:21:44.918Z,4.00
2019-06-11T00:22:44.945Z,4.00
2019-06-11T00:23:44.902Z,4.00
2019-06-11T00:24:44.879Z,4.00
2019-06-11T00:25:44.872Z,4.00
2019-06-11T00:26:44.857Z,4.00
2019-06-11T00:27:44.859Z,4.00
2019-06-11T00:28:44.835Z,4.00
2019-06-11T00:29:44.838Z,4.00
2019-06-11T00:30:44.836Z,4.00
2019-06-11T00:31:44.812Z,4.00
2019-06-11T00:32:44.789Z,4.00
2019-06-11T00:33:44.773Z,4.00
2019-06-11T00:34:44.776Z,4.00
2019-06-11T00:35:44.755Z,4.00
2019-06-11T00:36:44.750Z,4.00
2019-06-11T00:37:44.780Z,4.00
2019-06-11T00:38:44.719Z,4.00
2019-06-11T00:39:44.699Z,4.00
2019-06-11T00:40:44.697Z,4.00
2019-06-11T00:41:44.693Z,4.00
2019-06-11T00:42:44.679Z,4.00
2019-06-11T00:43:44.663Z,4.00
2019-06-11T00:44:44.656Z,4.00
2019-06-11T00:45:44.657Z,4.00
2019-06-11T00:46:44.616Z,4.00
2019-06-11T00:47:44.600Z,4.00
2019-06-11T00:48:44.614Z,4.00
2019-06-11T00:49:44.588Z,4.00
2019-06-11T00:50:44.599Z,4.00
2019-06-11T00:51:44.564Z,4.00
2019-06-11T00:52:44.544Z,4.00
2019-06-11T00:53:44.561Z,4.00
2019-06-11T00:54:44.539Z,4.00
2019-06-11T00:55:44.521Z,4.00
2019-06-11T00:56:44.514Z,4.00
2019-06-11T00:57:44.489Z,4.00
2019-06-11T00:58:44.479Z,4.00
2019-06-11T00:59:44.479Z,4.00
2019-06-11T01:00:44.461Z,4.00
2019-06-11T01:01:44.448Z,4.00
2019-06-11T01:02:47.119Z,4.00
2019-06-11T01:03:44.432Z,4.00
2019-06-11T01:04:44.418Z,4.00
2019-06-11T01:05:44.416Z,4.00
2019-06-11T01:06:44.418Z,4.00
2019-06-11T01:07:44.381Z,4.00
2019-06-11T01:08:44.483Z,4.00
2019-06-11T01:09:44.553Z,4.00
2019-06-11T01:10:44.349Z,4.00
2019-06-11T01:11:44.333Z,4.00
2019-06-11T01:12:44.316Z,4.00
2019-06-11T01:13:44.339Z,4.00
2019-06-11T01:14:44.291Z,4.00
2019-06-11T01:15:44.289Z,4.00
2019-06-11T01:16:44.269Z,4.00
2019-06-11T01:17:44.248Z,4.00
2019-06-11T01:18:44.312Z,4.00
2019-06-11T01:19:44.281Z,4.00
2019-06-11T01:20:44.226Z,4.00
2019-06-11T01:21:44.202Z,4.00
2019-06-11T01:22:44.196Z,4.00
2019-06-11T01:23:44.255Z,4.00
2019-06-11T01:24:44.292Z,4.00
2019-06-11T01:25:44.166Z,4.00
2019-06-11T01:26:44.150Z,4.00
2019-06-11T01:27:44.147Z,4.00
2019-06-11T01:28:44.145Z,4.00
2019-06-11T01:29:44.278Z,4.00
2019-06-11T01:30:44.115Z,4.00
2019-06-11T01:31:44.099Z,4.00
2019-06-11T01:32:58.247Z,4.00
2019-06-11T01:33:44.096Z,4.00
2019-06-11T01:34:44.120Z,4.00
2019-06-11T01:35:44.061Z,4.00
2019-06-11T01:36:44.061Z,4.00
2019-06-11T01:37:44.029Z,4.00
2019-06-11T01:38:44.008Z,4.00
2019-06-11T01:39:44.022Z,4.00
2019-06-11T01:40:44.040Z,4.00
2019-06-11T01:41:43.973Z,4.00
2019-06-11T01:42:43.971Z,4.00
2019-06-11T01:43:43.959Z,4.00
2019-06-11T01:44:43.961Z,4.00
2019-06-11T01:45:43.948Z,4.00
2019-06-11T01:46:43.928Z,4.00
2019-06-11T01:47:43.926Z,4.00
2019-06-11T01:48:43.912Z,4.00
2019-06-11T01:49:43.876Z,4.00
2019-06-11T01:50:43.871Z,4.00
2019-06-11T01:51:43.865Z,4.00
2019-06-11T01:52:43.843Z,4.00
2019-06-11T01:53:43.837Z,4.00
2019-06-11T01:54:43.818Z,4.00
2019-06-11T01:55:43.806Z,4.00
2019-06-11T01:56:43.818Z,4.00
2019-06-11T01:57:43.836Z,4.00
2019-06-11T01:58:43.792Z,4.00
2019-06-11T01:59:43.779Z,4.00
2019-06-11T02:00:43.760Z,4.00
2019-06-11T02:01:43.785Z,4.00
2019-06-11T02:02:43.731Z,4.00
2019-06-11T02:03:45.447Z,4.00
2019-06-11T02:04:43.700Z,4.00
2019-06-11T02:05:43.689Z,4.00
2019-06-11T02:06:43.675Z,4.00
2019-06-11T02:07:43.677Z,4.00
2019-06-11T02:08:43.645Z,4.00
2019-06-11T02:09:43.633Z,4.00
2019-06-11T02:10:43.643Z,4.00
2019-06-11T02:11:43.644Z,4.00
2019-06-11T02:12:43.620Z,4.00
2019-06-11T02:13:43.596Z,4.00
2019-06-11T02:14:43.581Z,4.00
2019-06-11T02:15:43.943Z,4.00
2019-06-11T02:16:43.578Z,4.00
2019-06-11T02:17:43.567Z,4.00
2019-06-11T02:18:43.527Z,4.00
2019-06-11T02:19:43.526Z,4.00
2019-06-11T02:20:43.507Z,4.00
2019-06-11T02:21:43.519Z,4.00
2019-06-11T02:22:43.507Z,4.00
2019-06-11T02:23:43.532Z,4.00
2019-06-11T02:24:43.467Z,4.00
2019-06-11T02:25:43.450Z,4.00
2019-06-11T02:26:43.470Z,4.00
2019-06-11T02:27:43.427Z,4.00
2019-06-11T02:28:43.423Z,4.00
2019-06-11T02:29:43.416Z,4.00
2019-06-11T02:30:54.170Z,4.00
2019-06-11T02:31:43.510Z,4.00
2019-06-11T02:32:44.098Z,4.00
2019-06-11T02:33:59.978Z,4.00
2019-06-11T02:35:10.204Z,4.00
2019-06-11T02:35:53.940Z,4.00
2019-06-11T02:36:43.329Z,4.00
2019-06-11T02:37:43.310Z,4.00
2019-06-11T02:38:43.350Z,4.00
2019-06-11T02:39:43.288Z,4.00
2019-06-11T02:40:43.276Z,4.00
2019-06-11T02:41:43.281Z,4.00
2019-06-11T02:42:43.272Z,4.00
2019-06-11T02:43:43.469Z,4.00
2019-06-11T02:44:43.242Z,4.00
2019-06-11T02:45:43.221Z,4.00
2019-06-11T02:46:43.211Z,4.00
2019-06-11T02:47:43.191Z,4.00
2019-06-11T02:48:50.346Z,4.00
2019-06-11T02:49:43.181Z,4.00
2019-06-11T02:50:43.149Z,4.00
2019-06-11T02:51:43.207Z,4.00
2019-06-11T02:52:43.141Z,4.00
2019-06-11T02:53:43.135Z,4.00
2019-06-11T02:54:43.113Z,4.00
2019-06-11T02:55:43.098Z,4.00
2019-06-11T02:56:43.072Z,4.00
2019-06-11T02:57:43.082Z,4.00
2019-06-11T02:58:43.078Z,4.00
2019-06-11T02:59:43.057Z,4.00
2019-06-11T03:00:48.512Z,4.00
2019-06-11T03:01:43.035Z,4.00
2019-06-11T03:02:43.060Z,4.00
2019-06-11T03:03:43.408Z,4.00
2019-06-11T03:04:54.434Z,4.00
2019-06-11T03:05:43.487Z,4.00
2019-06-11T03:06:42.953Z,4.00
2019-06-11T03:07:42.942Z,4.00
2019-06-11T03:08:43.479Z,4.00
2019-06-11T03:09:42.939Z,4.00
2019-06-11T03:10:42.926Z,4.00
2019-06-11T03:11:42.905Z,4.00
2019-06-11T03:12:42.877Z,4.00
2019-06-11T03:13:43.486Z,4.00
2019-06-11T03:14:42.924Z,4.00
2019-06-11T03:15:42.838Z,4.00
2019-06-11T03:16:44.528Z,4.00
2019-06-11T03:17:42.837Z,4.00
2019-06-11T03:18:43.690Z,4.00
2019-06-11T03:19:42.818Z,4.00
2019-06-11T03:20:43.112Z,4.00
2019-06-11T03:21:43.162Z,4.00
2019-06-11T03:22:43.274Z,4.00
2019-06-11T03:23:42.761Z,4.00
2019-06-11T03:24:42.789Z,4.00
2019-06-11T03:25:42.740Z,4.00
2019-06-11T03:26:42.715Z,4.00
2019-06-11T03:27:42.816Z,4.00
2019-06-11T03:28:42.687Z,4.00
2019-06-11T03:29:42.686Z,4.00
2019-06-11T03:31:13.637Z,4.00
2019-06-11T03:32:28.471Z,4.00
2019-06-11T03:33:25.177Z,4.00
2019-06-11T03:36:32.443Z,4.00
2019-06-11T03:37:17.298Z,4.00
2019-06-11T03:38:14.489Z,4.00
2019-06-11T03:39:09.946Z,4.00
2019-06-11T03:39:54.124Z,4.00
2019-06-11T03:40:42.998Z,4.00
2019-06-11T03:41:42.533Z,4.00
2019-06-11T03:42:42.517Z,4.00
2019-06-11T03:43:42.694Z,4.00
2019-06-11T03:44:42.503Z,4.00
2019-06-11T03:45:42.483Z,4.00
2019-06-11T03:46:42.463Z,4.00
2019-06-11T03:47:42.498Z,4.00
2019-06-11T03:48:42.452Z,4.00
2019-06-11T03:49:42.620Z,4.00
2019-06-11T03:50:42.431Z,4.00
2019-06-11T03:51:42.536Z,4.00
2019-06-11T03:52:42.408Z,4.00
2019-06-11T03:53:42.854Z,4.00
2019-06-11T03:54:42.384Z,4.00
2019-06-11T03:55:42.361Z,4.00
2019-06-11T03:56:42.545Z,4.00
2019-06-11T03:57:42.812Z,4.00
2019-06-11T03:58:43.409Z,4.00
2019-06-11T03:59:42.290Z,4.00
2019-06-11T04:00:50.949Z,4.00
2019-06-11T04:01:43.030Z,4.00
2019-06-11T04:02:42.261Z,4.00
2019-06-11T04:03:43.143Z,4.00
2019-06-11T04:04:42.240Z,4.00
2019-06-11T04:05:42.345Z,4.00
2019-06-11T04:07:02.540Z,4.00
2019-06-11T04:07:51.278Z,4.00
2019-06-11T04:08:42.327Z,4.00
2019-06-11T04:09:42.229Z,4.00
2019-06-11T04:10:42.577Z,4.00
2019-06-11T04:11:42.147Z,4.00
2019-06-11T04:12:42.931Z,4.00
2019-06-11T04:13:42.675Z,4.00
2019-06-11T04:14:42.110Z,4.00
2019-06-11T04:15:42.224Z,4.00
2019-06-11T04:17:06.970Z,4.00
2019-06-11T04:17:52.859Z,4.00
2019-06-11T04:18:42.668Z,4.00
2019-06-11T04:19:42.067Z,4.00
2019-06-11T04:20:42.493Z,4.00
2019-06-11T04:21:42.072Z,4.00
2019-06-11T04:22:42.014Z,4.00
2019-06-11T04:23:42.759Z,4.00
2019-06-11T04:24:42.235Z,4.00
2019-06-11T04:25:42.490Z,4.00
2019-06-11T04:26:47.086Z,4.00
2019-06-11T04:27:41.955Z,4.00
2019-06-11T04:28:42.143Z,4.00
2019-06-11T04:29:41.926Z,4.00
2019-06-11T04:30:45.427Z,4.00
2019-06-11T04:31:45.542Z,4.00
2019-06-11T04:32:41.931Z,4.00
2019-06-11T04:33:46.507Z,4.00
2019-06-11T04:34:42.138Z,4.00
2019-06-11T04:35:42.831Z,4.00
2019-06-11T04:36:47.606Z,4.00
2019-06-11T04:38:01.117Z,4.00
2019-06-11T04:38:47.029Z,4.00
2019-06-11T04:39:42.286Z,4.00
2019-06-11T04:40:41.942Z,4.00
2019-06-11T04:41:41.821Z,4.00
2019-06-11T04:42:42.519Z,4.00
2019-06-11T04:43:42.422Z,4.00
2019-06-11T04:44:41.920Z,4.00
2019-06-11T04:45:42.773Z,4.00
2019-06-11T04:46:42.078Z,4.00
2019-06-11T04:47:47.976Z,4.00
2019-06-11T04:48:43.393Z,4.00
2019-06-11T04:49:43.849Z,4.00
2019-06-11T04:50:41.984Z,4.00
2019-06-11T04:51:42.021Z,4.00
2019-06-11T04:52:42.757Z,4.00
2019-06-11T04:53:41.957Z,4.00
2019-06-11T04:54:42.313Z,4.00
2019-06-11T04:55:42.047Z,4.00
2019-06-11T04:56:43.539Z,4.00
2019-06-11T04:57:41.671Z,4.00
2019-06-11T04:58:43.718Z,4.00
2019-06-11T04:59:42.107Z,4.00
2019-06-11T05:04:14.206Z,4.00
2019-06-11T05:04:25.122Z,4.00
2019-06-11T05:04:31.987Z,4.00
2019-06-11T05:04:56.602Z,4.00
2019-06-11T05:05:43.146Z,4.00
2019-06-11T05:06:43.432Z,4.00
2019-06-11T05:07:59.743Z,4.00
2019-06-11T05:08:44.390Z,4.00
2019-06-11T05:09:43.684Z,4.00
2019-06-11T05:10:46.629Z,4.00
2019-06-11T05:11:45.559Z,4.00
2019-06-11T05:12:42.532Z,4.00
2019-06-11T05:13:44.295Z,4.00
2019-06-11T05:14:51.340Z,4.00
2019-06-11T05:15:42.354Z,4.00
2019-06-11T05:16:44.237Z,4.00
2019-06-11T05:17:41.966Z,4.00
2019-06-11T05:18:41.927Z,4.00
2019-06-11T05:19:43.864Z,4.00
2019-06-11T05:20:41.579Z,4.00
2019-06-11T05:21:43.053Z,4.00
2019-06-11T05:22:41.837Z,4.00
2019-06-11T05:23:41.964Z,4.00
2019-06-11T05:24:42.811Z,4.00
2019-06-11T05:25:54.011Z,4.00
2019-06-11T05:26:42.416Z,4.00
2019-06-11T05:27:41.183Z,4.00
2019-06-11T05:28:41.142Z,4.00
2019-06-11T05:29:41.664Z,4.00
2019-06-11T05:30:45.141Z,4.00
2019-06-11T05:31:46.860Z,4.00
2019-06-11T05:32:41.810Z,4.00
2019-06-11T05:33:42.532Z,4.00
2019-06-11T05:34:41.507Z,4.00
2019-06-11T05:35:41.085Z,4.00
2019-06-11T05:36:41.540Z,4.00
2019-06-11T05:38:01.014Z,4.00
2019-06-11T05:38:46.548Z,4.00
2019-06-11T05:39:41.104Z,4.00
2019-06-11T05:40:41.621Z,4.00
2019-06-11T05:41:42.261Z,4.00
2019-06-11T05:42:41.639Z,4.00
2019-06-11T05:43:41.268Z,4.00
2019-06-11T05:44:41.193Z,4.00
2019-06-11T05:45:43.029Z,4.00
2019-06-11T05:46:42.367Z,4.00
2019-06-11T05:47:41.783Z,4.00
2019-06-11T05:48:41.027Z,4.00
2019-06-11T05:49:41.374Z,4.00
2019-06-11T05:50:41.043Z,4.00
2019-06-11T05:51:41.221Z,4.00
2019-06-11T05:52:41.592Z,4.00
2019-06-11T05:53:40.827Z,4.00
2019-06-11T05:54:41.031Z,4.00
2019-06-11T05:55:41.975Z,4.00
2019-06-11T05:56:41.513Z,4.00
2019-06-11T05:57:40.766Z,4.00
2019-06-11T05:58:41.428Z,4.00
2019-06-11T05:59:40.991Z,4.00
2019-06-11T06:00:44.893Z,4.00
2019-06-11T06:01:53.048Z,4.00
2019-06-11T06:02:40.883Z,4.00
2019-06-11T06:03:40.933Z,4.00
2019-06-11T06:04:41.213Z,4.00
2019-06-11T06:05:41.205Z,4.00
2019-06-11T06:06:41.584Z,4.00
2019-06-11T06:07:40.738Z,4.00
2019-06-11T06:08:40.796Z,4.00
2019-06-11T06:09:41.288Z,4.00
2019-06-11T06:10:40.606Z,4.00
2019-06-11T06:11:40.794Z,4.00
2019-06-11T06:12:40.870Z,4.00
2019-06-11T06:13:41.880Z,4.00
2019-06-11T06:14:40.912Z,4.00
2019-06-11T06:15:41.880Z,4.00
2019-06-11T06:16:41.961Z,4.00
2019-06-11T06:17:40.929Z,4.00
2019-06-11T06:18:41.025Z,4.00
2019-06-11T06:19:40.703Z,4.00
2019-06-11T06:20:40.901Z,4.00
2019-06-11T06:21:40.476Z,4.00
2019-06-11T06:22:41.044Z,4.00
2019-06-11T06:23:40.974Z,4.00
2019-06-11T06:24:45.267Z,4.00
2019-06-11T06:25:45.105Z,4.00
2019-06-11T06:26:40.579Z,4.00
2019-06-11T06:27:41.166Z,4.00
2019-06-11T06:28:43.662Z,4.00
2019-06-11T06:29:41.108Z,4.00
2019-06-11T06:30:40.935Z,4.00
2019-06-11T06:31:40.397Z,4.00
2019-06-11T06:32:41.395Z,4.00
2019-06-11T06:33:40.958Z,4.00
2019-06-11T06:34:41.467Z,4.00
2019-06-11T06:35:40.288Z,4.00
2019-06-11T06:36:41.371Z,4.00
2019-06-11T06:37:40.326Z,4.00
2019-06-11T06:38:48.306Z,4.00
2019-06-11T06:39:40.274Z,4.00
2019-06-11T06:40:41.116Z,4.00
2019-06-11T06:41:42.573Z,4.00
2019-06-11T06:42:40.541Z,4.00
2019-06-11T06:43:40.476Z,4.00
2019-06-11T06:44:41.263Z,4.00
2019-06-11T06:45:40.522Z,4.00
2019-06-11T06:46:40.752Z,4.00
2019-06-11T06:47:40.895Z,4.00
2019-06-11T06:48:41.433Z,8.00
2019-06-11T06:49:40.256Z,8.00
2019-06-11T06:50:40.772Z,4.00
2019-06-11T06:51:40.648Z,4.00
2019-06-11T06:52:41.473Z,4.00
2019-06-11T06:53:41.237Z,4.00
2019-06-11T06:54:46.415Z,4.00
2019-06-11T06:55:40.655Z,4.00
2019-06-11T06:56:40.506Z,4.00
2019-06-11T06:57:40.343Z,4.00
2019-06-11T06:58:41.386Z,4.00
2019-06-11T06:59:42.048Z,4.00
2019-06-11T07:00:41.019Z,4.00
2019-06-11T07:01:41.933Z,4.00
2019-06-11T07:02:40.498Z,4.00
2019-06-11T07:03:43.432Z,4.00
2019-06-11T07:04:41.675Z,4.00
2019-06-11T07:05:41.499Z,4.00
2019-06-11T07:06:41.514Z,4.00
2019-06-11T07:07:46.151Z,4.00
2019-06-11T07:08:59.419Z,4.00
2019-06-11T07:09:41.994Z,4.00
2019-06-11T07:10:43.016Z,8.00
2019-06-11T07:11:41.333Z,4.00
2019-06-11T07:12:41.213Z,8.00
2019-06-11T07:13:42.415Z,4.00
2019-06-11T07:14:42.047Z,4.00
2019-06-11T07:15:46.048Z,4.00
2019-06-11T07:16:57.263Z,4.00
2019-06-11T07:17:43.000Z,4.00
2019-06-11T07:18:50.013Z,4.00
2019-06-11T07:19:45.322Z,4.00
2019-06-11T07:20:43.477Z,4.00
2019-06-11T07:21:43.956Z,4.00
2019-06-11T07:22:43.442Z,4.00
2019-06-11T07:23:45.768Z,4.00
2019-06-11T07:24:43.827Z,4.00
2019-06-11T07:25:43.803Z,4.00
2019-06-11T07:26:43.852Z,4.00
2019-06-11T07:27:43.408Z,4.00
2019-06-11T07:28:44.159Z,4.00
2019-06-11T07:29:44.144Z,4.00
2019-06-11T07:30:45.805Z,4.00
2019-06-11T07:31:45.365Z,4.00
2019-06-11T07:32:40.818Z,4.00
2019-06-11T07:33:43.652Z,4.00
2019-06-11T07:34:44.964Z,4.00
2019-06-11T07:35:41.954Z,4.00
2019-06-11T07:36:44.786Z,4.00
2019-06-11T07:37:43.658Z,4.00
2019-06-11T07:38:44.139Z,8.00
2019-06-11T07:39:44.714Z,4.00
2019-06-11T07:40:43.270Z,4.00
2019-06-11T07:41:43.389Z,4.00
2019-06-11T07:42:42.015Z,4.00
2019-06-11T07:43:45.521Z,4.00
2019-06-11T07:44:43.510Z,8.00
2019-06-11T07:45:45.408Z,4.00
2019-06-11T07:46:50.036Z,8.00
2019-06-11T07:47:46.790Z,4.00
2019-06-11T07:48:50.874Z,4.00
2019-06-11T07:49:40.834Z,4.00
2019-06-11T07:50:43.590Z,4.00
2019-06-11T07:51:41.338Z,4.00
2019-06-11T07:52:41.727Z,4.00
2019-06-11T07:53:41.140Z,4.00
2019-06-11T07:54:43.978Z,4.00
2019-06-11T07:55:42.034Z,4.00
2019-06-11T07:56:41.535Z,4.00
2019-06-11T07:57:43.256Z,4.00
2019-06-11T07:58:43.209Z,4.00
2019-06-11T07:59:43.872Z,4.00
2019-06-11T08:00:42.033Z,8.00
2019-06-11T08:01:47.112Z,8.00
2019-06-11T08:02:43.801Z,4.00
2019-06-11T08:03:45.618Z,4.00
2019-06-11T08:04:41.863Z,4.00
2019-06-11T08:05:46.251Z,4.00
2019-06-11T08:06:43.349Z,4.00
2019-06-11T08:07:51.363Z,4.00
2019-06-11T08:08:44.867Z,4.00
2019-06-11T08:10:04.554Z,4.00
2019-06-11T08:10:47.661Z,4.00
2019-06-11T08:11:47.527Z,8.00
2019-06-11T08:12:48.922Z,4.00
2019-06-11T08:13:53.667Z,8.00
2019-06-11T08:14:42.223Z,8.00
2019-06-11T08:15:49.032Z,8.00
2019-06-11T08:16:47.772Z,8.00
2019-06-11T08:17:56.303Z,8.00
2019-06-11T08:18:49.252Z,8.00
2019-06-11T08:19:56.088Z,8.00
2019-06-11T08:21:07.401Z,8.00
2019-06-11T08:21:58.444Z,8.00
2019-06-11T08:22:56.266Z,8.00
2019-06-11T08:23:50.643Z,8.00
2019-06-11T08:24:44.830Z,4.00
2019-06-11T08:26:13.834Z,8.00
2019-06-11T08:27:55.535Z,8.00
2019-06-11T08:28:41.071Z,8.00
2019-06-11T08:29:41.632Z,8.00
2019-06-11T08:30:41.240Z,8.00
2019-06-11T08:31:40.834Z,8.00
2019-06-11T08:32:41.283Z,8.00
2019-06-11T08:33:40.022Z,8.00
2019-06-11T08:34:40.862Z,4.00
2019-06-11T08:35:41.161Z,8.00
2019-06-11T08:36:41.305Z,4.00
2019-06-11T08:37:40.900Z,8.00
2019-06-11T08:38:41.299Z,8.00
2019-06-11T08:39:41.563Z,8.00
2019-06-11T08:40:41.413Z,8.00
2019-06-11T08:41:39.987Z,8.00
2019-06-11T08:42:42.134Z,8.00
2019-06-11T08:43:39.543Z,8.00
2019-06-11T08:44:58.410Z,8.00
2019-06-11T08:45:41.558Z,8.00
2019-06-11T08:46:41.901Z,8.00
2019-06-11T08:47:40.068Z,8.00
2019-06-11T08:48:42.543Z,8.00
2019-06-11T08:49:41.407Z,8.00
2019-06-11T08:50:41.607Z,8.00
2019-06-11T08:51:40.966Z,8.00
2019-06-11T08:52:41.002Z,8.00
2019-06-11T08:53:41.154Z,4.00
2019-06-11T08:54:42.201Z,8.00
2019-06-11T08:55:40.947Z,8.00
2019-06-11T08:56:41.203Z,8.00
2019-06-11T08:57:39.320Z,8.00
2019-06-11T08:58:39.182Z,8.00
2019-06-11T08:59:45.013Z,8.00
2019-06-11T09:00:50.972Z,8.00
2019-06-11T09:01:41.683Z,8.00
2019-06-11T09:02:39.738Z,8.00
2019-06-11T09:03:42.020Z,8.00
2019-06-11T09:04:39.735Z,4.00
2019-06-11T09:05:43.310Z,8.00
2019-06-11T09:06:39.931Z,8.00
2019-06-11T09:07:42.144Z,8.00
2019-06-11T09:08:40.856Z,8.00
2019-06-11T09:09:41.555Z,8.00
2019-06-11T09:10:40.917Z,8.00
2019-06-11T09:11:38.892Z,8.00
2019-06-11T09:12:38.337Z,8.00
2019-06-11T09:13:41.894Z,8.00
2019-06-11T09:14:42.393Z,8.00
2019-06-11T09:15:40.112Z,8.00
2019-06-11T09:16:41.675Z,8.00
2019-06-11T09:17:40.150Z,8.00
2019-06-11T09:18:39.313Z,8.00
2019-06-11T09:19:39.142Z,8.00
2019-06-11T09:20:40.346Z,8.00
2019-06-11T09:21:39.362Z,8.00
2019-06-11T09:22:40.507Z,8.00
2019-06-11T09:23:40.735Z,8.00
2019-06-11T09:24:38.085Z,8.00
2019-06-11T09:25:40.659Z,8.00
2019-06-11T09:26:38.065Z,8.00
2019-06-11T09:27:40.161Z,8.00
2019-06-11T09:28:38.030Z,8.00
2019-06-11T09:29:40.463Z,8.00
2019-06-11T09:30:40.020Z,8.00
2019-06-11T09:31:38.001Z,8.00
2019-06-11T09:32:40.383Z,8.00
2019-06-11T09:33:40.549Z,8.00
2019-06-11T09:34:37.943Z,8.00
2019-06-11T09:35:40.181Z,8.00
2019-06-11T09:36:37.924Z,8.00
2019-06-11T09:37:39.900Z,12.00
2019-06-11T09:38:37.875Z,8.00
2019-06-11T09:39:37.882Z,8.00
2019-06-11T09:40:44.804Z,12.00
2019-06-11T09:41:37.898Z,8.00
2019-06-11T09:42:40.604Z,12.00
2019-06-11T09:43:37.836Z,12.00
2019-06-11T09:44:40.227Z,16.00
2019-06-11T09:45:37.805Z,16.00
2019-06-11T09:46:40.132Z,16.00
2019-06-11T09:47:42.957Z,16.00
2019-06-11T09:48:37.747Z,20.00
2019-06-11T09:49:37.767Z,20.00
2019-06-11T09:50:37.735Z,20.00
2019-06-11T09:51:40.102Z,16.00
2019-06-11T09:52:37.723Z,16.00
2019-06-11T09:53:39.920Z,20.00
2019-06-11T09:54:37.683Z,20.00
2019-06-11T09:55:40.154Z,24.00
2019-06-11T09:56:37.648Z,24.00
2019-06-11T09:57:37.635Z,28.00
2019-06-11T09:58:37.651Z,28.00
2019-06-11T09:59:40.068Z,32.00
2019-06-11T10:00:37.597Z,32.00
2019-06-11T10:01:40.349Z,36.00
2019-06-11T10:02:37.571Z,40.00
2019-06-11T10:03:40.392Z,40.00
2019-06-11T10:04:37.578Z,44.00
2019-06-11T10:05:37.553Z,44.00
2019-06-11T10:06:40.049Z,52.00
2019-06-11T10:07:37.522Z,52.00
2019-06-11T10:08:39.971Z,56.00
2019-06-11T10:09:37.502Z,56.00
2019-06-11T10:10:52.504Z,60.00
2019-06-11T10:11:44.816Z,64.00
2019-06-11T10:12:37.470Z,68.00
2019-06-11T10:13:40.277Z,76.00
2019-06-11T10:14:37.417Z,84.00
2019-06-11T10:15:37.399Z,92.00
2019-06-11T10:16:37.414Z,96.00
2019-06-11T10:17:37.443Z,100.00
2019-06-11T10:18:37.377Z,104.00
2019-06-11T10:19:37.376Z,112.00
2019-06-11T10:20:37.415Z,120.00
2019-06-11T10:21:37.327Z,124.00
2019-06-11T10:22:37.326Z,124.00
2019-06-11T10:23:37.332Z,124.00
2019-06-11T10:24:37.317Z,128.00
2019-06-11T10:25:37.306Z,136.00
2019-06-11T10:26:37.286Z,148.00
2019-06-11T10:27:37.278Z,156.00
2019-06-11T10:28:37.246Z,168.00
2019-06-11T10:29:37.251Z,168.00
2019-06-11T10:30:37.234Z,164.00
2019-06-11T10:31:37.212Z,168.00
2019-06-11T10:32:37.424Z,172.00
2019-06-11T10:33:37.415Z,168.00
2019-06-11T10:34:37.241Z,168.00
2019-06-11T10:35:37.176Z,176.00
2019-06-11T10:36:37.203Z,184.00
2019-06-11T10:37:37.175Z,196.00
2019-06-11T10:38:37.140Z,196.00
2019-06-11T10:39:37.127Z,196.00
2019-06-11T10:40:37.105Z,200.00
2019-06-11T10:41:49.995Z,200.00
2019-06-11T10:42:40.964Z,204.00
2019-06-11T10:43:37.062Z,212.00
2019-06-11T10:44:37.038Z,224.00
2019-06-11T10:45:37.045Z,228.00
2019-06-11T10:46:37.033Z,224.00
2019-06-11T10:47:37.029Z,228.00
2019-06-11T10:48:37.013Z,240.00
2019-06-11T10:49:36.991Z,256.00
2019-06-11T10:50:36.972Z,252.00
2019-06-11T10:51:36.973Z,244.00
2019-06-11T10:52:36.966Z,244.00
2019-06-11T10:53:36.940Z,252.00
2019-06-11T10:54:36.906Z,264.00
2019-06-11T10:55:36.918Z,268.00
2019-06-11T10:56:36.905Z,280.00
2019-06-11T10:57:36.893Z,292.00
2019-06-11T10:58:36.882Z,292.00
2019-06-11T10:59:36.848Z,300.00
2019-06-11T11:00:36.861Z,308.00
2019-06-11T11:01:36.843Z,328.00
2019-06-11T11:02:36.840Z,336.00
2019-06-11T11:03:36.854Z,340.00
2019-06-11T11:04:36.796Z,324.00
2019-06-11T11:05:36.778Z,304.00
2019-06-11T11:06:36.765Z,296.00
2019-06-11T11:07:36.770Z,300.00
2019-06-11T11:08:36.749Z,304.00
2019-06-11T11:09:36.738Z,292.00
2019-06-11T11:10:36.723Z,280.00
2019-06-11T11:11:36.695Z,292.00
2019-06-11T11:12:36.697Z,332.00
2019-06-11T11:13:36.683Z,360.00
2019-06-11T11:14:36.652Z,404.00
2019-06-11T11:15:36.653Z,432.00
2019-06-11T11:16:36.682Z,452.00
2019-06-11T11:17:39.500Z,456.00
2019-06-11T11:18:36.634Z,452.00
2019-06-11T11:19:36.643Z,432.00
2019-06-11T11:20:36.591Z,392.00
2019-06-11T11:21:36.598Z,388.00
2019-06-11T11:22:36.562Z,396.00
2019-06-11T11:23:36.566Z,380.00
2019-06-11T11:24:36.554Z,412.00
2019-06-11T11:25:36.547Z,412.00
2019-06-11T11:26:36.524Z,328.00
2019-06-11T11:27:53.569Z,356.00
2019-06-11T11:28:36.494Z,352.00
2019-06-11T11:29:36.485Z,384.00
2019-06-11T11:30:36.469Z,448.00
2019-06-11T11:31:36.450Z,428.00
2019-06-11T11:32:36.447Z,452.00
2019-06-11T11:33:36.413Z,472.00
2019-06-11T11:34:36.428Z,572.00
2019-06-11T11:35:36.388Z,756.00
2019-06-11T11:36:36.409Z,928.00
2019-06-11T11:37:36.389Z,1364.00
2019-06-11T11:38:36.369Z,1384.00
2019-06-11T11:39:36.358Z,3764.00
2019-06-11T11:40:36.340Z,4736.00
2019-06-11T11:41:36.341Z,3412.00
2019-06-11T11:42:37.345Z,3508.00
2019-06-11T11:43:40.153Z,2372.00
2019-06-11T11:44:36.296Z,2508.00
2019-06-11T11:45:36.330Z,1904.00
2019-06-11T11:46:36.274Z,1624.00
2019-06-11T11:47:36.306Z,1680.00
2019-06-11T11:48:36.234Z,1664.00
2019-06-11T11:49:36.243Z,1556.00
2019-06-11T11:50:36.223Z,1408.00
2019-06-11T11:51:36.209Z,1428.00
2019-06-11T11:52:36.184Z,1300.00
2019-06-11T11:53:36.185Z,1540.00
2019-06-11T11:54:36.194Z,1480.00
2019-06-11T11:55:36.170Z,1504.00
2019-06-11T11:56:36.146Z,1520.00
2019-06-11T11:57:36.181Z,1304.00
2019-06-11T11:58:36.134Z,1540.00
2019-06-11T11:59:36.127Z,1564.00
2019-06-11T12:00:36.111Z,1584.00
2019-06-11T12:01:36.101Z,1652.00
2019-06-11T12:02:36.096Z,1552.00
2019-06-11T12:03:36.075Z,1624.00
2019-06-11T12:04:36.043Z,1712.00
2019-06-11T12:05:36.044Z,1580.00
2019-06-11T12:06:36.044Z,1724.00
2019-06-11T12:07:36.329Z,1540.00
2019-06-11T12:08:36.021Z,1744.00
2019-06-11T12:09:36.012Z,1608.00
2019-06-11T12:10:35.984Z,1744.00
2019-06-11T12:11:35.988Z,1728.00
2019-06-11T12:12:48.434Z,1684.00
2019-06-11T12:13:35.960Z,1768.00
2019-06-11T12:14:35.933Z,1764.00
2019-06-11T12:15:35.923Z,1768.00
2019-06-11T12:16:50.004Z,1868.00
2019-06-11T12:17:35.923Z,1868.00
2019-06-11T12:18:35.939Z,1884.00
2019-06-11T12:19:35.897Z,1900.00
2019-06-11T12:20:35.879Z,1924.00
2019-06-11T12:21:35.866Z,1932.00
2019-06-11T12:22:35.874Z,1916.00
2019-06-11T12:23:35.843Z,1904.00
2019-06-11T12:24:35.853Z,1924.00
2019-06-11T12:25:37.511Z,1916.00
2019-06-11T12:26:35.815Z,1900.00
2019-06-11T12:27:35.817Z,1896.00
2019-06-11T12:28:35.782Z,1896.00
2019-06-11T12:29:35.781Z,1916.00
2019-06-11T12:30:35.776Z,1876.00
2019-06-11T12:31:35.775Z,1928.00
2019-06-11T12:32:35.751Z,1944.00
2019-06-11T12:33:35.752Z,2012.00
2019-06-11T12:34:35.737Z,1952.00
2019-06-11T12:35:35.739Z,1932.00
2019-06-11T12:36:35.732Z,1876.00
2019-06-11T12:37:35.711Z,1904.00
2019-06-11T12:38:38.009Z,1836.00
2019-06-11T12:39:35.670Z,1828.00
2019-06-11T12:40:35.674Z,1792.00
2019-06-11T12:41:36.014Z,1804.00
2019-06-11T12:42:35.643Z,1788.00
2019-06-11T12:43:37.619Z,1772.00
2019-06-11T12:44:35.649Z,1784.00
2019-06-11T12:45:35.837Z,1768.00
2019-06-11T12:46:35.619Z,1780.00
2019-06-11T12:47:35.612Z,1744.00
2019-06-11T12:48:35.607Z,1720.00
2019-06-11T12:49:35.598Z,1692.00
2019-06-11T12:50:35.587Z,1692.00
2019-06-11T12:51:35.572Z,1716.00
2019-06-11T12:52:37.879Z,1708.00
2019-06-11T12:53:35.565Z,1712.00
2019-06-11T12:54:35.540Z,1640.00
2019-06-11T12:55:35.536Z,1652.00
2019-06-11T12:56:35.538Z,1640.00
2019-06-11T12:57:35.508Z,1632.00
2019-06-11T12:58:35.504Z,1600.00
2019-06-11T12:59:35.508Z,1552.00
2019-06-11T13:00:35.481Z,1504.00
2019-06-11T13:01:35.527Z,1464.00
2019-06-11T13:02:35.652Z,1424.00
2019-06-11T13:03:35.452Z,1420.00
2019-06-11T13:04:35.464Z,1372.00
2019-06-11T13:05:35.869Z,1328.00
2019-06-11T13:06:35.419Z,1304.00